La Paz, Argentina
Current Conditions -  °F | °C
As of 4:00 PM on Friday 21 Nov 2014 (Local Time) from SAME Reporting Station
Scattered Clouds Scattered Clouds  
Wind Chill: 22°   Ceiling: Unl
Heat Index: 22°   Visibility: 6mi
Dew Point:   Wind: 3mph
Humidity: 35%   Direction: 230°SW
Pressure: 29.97"   Gusts: NA
Location:  33.47°S, 67.55°W
Report Text: SAME 211900Z 23003KT 9999 FEW040 SCT04522/06 Q1015
Loading
Personal Weather Stations






























Interactive Weather Map New forecast layout! Learn more

10-Day Weather Forecast

Advertisements
Track Severe Weather on mobile